createdAt,value
2018-06-05T00:01:31.930Z,8.00
2018-06-05T00:04:00.749Z,8.23
2018-06-05T00:06:29.528Z,7.97
2018-06-05T00:08:58.333Z,7.43
2018-06-05T00:11:27.032Z,9.00
2018-06-05T00:13:55.799Z,8.00
2018-06-05T00:16:24.564Z,8.63
2018-06-05T00:18:53.385Z,6.93
2018-06-05T00:21:22.099Z,6.80
2018-06-05T00:23:50.878Z,7.57
2018-06-05T00:26:19.559Z,7.47
2018-06-05T00:28:48.320Z,8.17
2018-06-05T00:31:17.146Z,8.50
2018-06-05T00:33:46.024Z,8.00
2018-06-05T00:36:14.742Z,8.50
2018-06-05T00:38:43.479Z,9.43
2018-06-05T00:41:11.825Z,8.83
2018-06-05T00:43:40.645Z,8.27
2018-06-05T00:46:09.373Z,8.07
2018-06-05T00:48:38.080Z,7.47
2018-06-05T00:51:18.004Z,9.30
2018-06-05T00:53:46.753Z,8.37
2018-06-05T00:56:15.680Z,7.87
2018-06-05T00:58:44.454Z,9.20
2018-06-05T01:01:13.281Z,7.43
2018-06-05T01:03:41.986Z,8.30
2018-06-05T01:06:10.717Z,7.80
2018-06-05T01:08:39.558Z,8.30
2018-06-05T01:11:13.372Z,8.50
2018-06-05T01:13:47.830Z,9.00
2018-06-05T01:16:21.540Z,8.77
2018-06-05T01:19:00.756Z,8.80
2018-06-05T01:21:33.787Z,8.10
2018-06-05T01:24:08.326Z,8.30
2018-06-05T01:26:43.183Z,8.60
2018-06-05T01:29:19.057Z,9.30
2018-06-05T01:31:50.918Z,8.50
2018-06-05T01:34:31.198Z,7.70
2018-06-05T01:37:03.833Z,9.03
2018-06-05T01:39:36.450Z,9.03
2018-06-05T01:42:09.158Z,8.13
2018-06-05T01:44:43.715Z,9.10
2018-06-05T01:47:18.774Z,8.47
2018-06-05T01:49:51.398Z,8.17
2018-06-05T01:52:26.071Z,9.00
2018-06-05T01:54:59.107Z,9.60
2018-06-05T01:57:32.905Z,8.07
2018-06-05T02:00:05.824Z,8.67
2018-06-05T02:02:39.051Z,9.00
2018-06-05T02:05:12.685Z,8.93
2018-06-05T02:07:45.805Z,8.70
2018-06-05T02:10:19.555Z,8.40
2018-06-05T02:12:52.878Z,8.33
2018-06-05T02:15:33.898Z,9.80
2018-06-05T02:18:05.748Z,9.23
2018-06-05T02:20:38.221Z,9.33
2018-06-05T02:23:11.236Z,9.23
2018-06-05T02:25:43.552Z,10.17
2018-06-05T02:28:15.798Z,9.17
2018-06-05T02:30:49.638Z,9.43
2018-06-05T02:33:22.599Z,9.90
2018-06-05T02:35:55.061Z,9.97
2018-06-05T02:38:23.854Z,7.93
2018-06-05T02:40:53.909Z,9.13
2018-06-05T02:43:22.660Z,8.77
2018-06-05T02:45:51.208Z,8.90
2018-06-05T02:48:19.942Z,9.10
2018-06-05T02:50:48.693Z,8.30
2018-06-05T02:53:17.472Z,9.47
2018-06-05T02:55:46.238Z,9.00
2018-06-05T02:58:14.930Z,8.70
2018-06-05T03:00:43.653Z,8.20
2018-06-05T03:03:12.385Z,9.33
2018-06-05T03:05:41.135Z,9.17
2018-06-05T03:08:09.900Z,9.50
2018-06-05T03:10:38.663Z,9.10
2018-06-05T03:13:07.410Z,10.60
2018-06-05T03:15:36.139Z,9.33
2018-06-05T03:18:04.870Z,9.20
2018-06-05T03:20:33.639Z,8.27
2018-06-05T03:23:02.353Z,10.10
2018-06-05T03:25:31.156Z,10.33
2018-06-05T03:27:59.896Z,9.70
2018-06-05T03:30:28.568Z,9.90
2018-06-05T03:32:57.251Z,9.90
2018-06-05T03:35:25.972Z,10.20
2018-06-05T03:37:54.708Z,10.50
2018-06-05T03:40:23.417Z,9.53
2018-06-05T03:42:52.140Z,10.00
2018-06-05T03:45:20.817Z,10.10
2018-06-05T03:47:49.541Z,9.57
2018-06-05T03:50:18.261Z,10.00
2018-06-05T03:52:46.974Z,11.00
2018-06-05T03:55:15.755Z,10.57
2018-06-05T03:57:44.465Z,10.07
2018-06-05T04:00:13.209Z,10.40
2018-06-05T04:02:41.937Z,9.70
2018-06-05T04:05:10.653Z,7.93
2018-06-05T04:07:39.412Z,10.00
2018-06-05T04:10:08.104Z,9.33
2018-06-05T04:12:36.890Z,10.53
2018-06-05T04:15:05.715Z,10.90
2018-06-05T04:17:34.479Z,9.63
2018-06-05T04:20:03.318Z,9.60
2018-06-05T04:22:31.997Z,9.90
2018-06-05T04:25:00.751Z,9.87
2018-06-05T04:27:29.554Z,12.20
2018-06-05T04:29:58.303Z,10.70
2018-06-05T04:32:26.994Z,9.70
2018-06-05T04:34:55.710Z,10.20
2018-06-05T04:37:24.417Z,9.87
2018-06-05T04:39:53.196Z,11.23
2018-06-05T04:42:21.935Z,10.03
2018-06-05T04:44:50.636Z,9.33
2018-06-05T04:47:20.177Z,10.67
2018-06-05T04:49:48.976Z,11.27
2018-06-05T04:52:17.729Z,10.60
2018-06-05T04:54:46.477Z,10.97
2018-06-05T04:57:15.202Z,10.60
2018-06-05T04:59:43.954Z,9.93
2018-06-05T05:02:13.539Z,11.10
2018-06-05T05:04:42.344Z,11.70
2018-06-05T05:07:11.125Z,10.60
2018-06-05T05:09:40.220Z,10.57
2018-06-05T05:12:08.946Z,10.20
2018-06-05T05:14:37.738Z,11.00
2018-06-05T05:17:06.516Z,11.30
2018-06-05T05:19:35.213Z,11.50
2018-06-05T05:22:03.974Z,11.30
2018-06-05T05:24:32.720Z,11.20
2018-06-05T05:27:01.533Z,13.30
2018-06-05T05:29:30.302Z,11.43
2018-06-05T05:31:59.043Z,12.80
2018-06-05T05:34:27.965Z,12.07
2018-06-05T05:36:56.678Z,11.90
2018-06-05T05:39:25.501Z,11.00
2018-06-05T05:41:54.289Z,11.07
2018-06-05T05:44:22.992Z,11.83
2018-06-05T05:46:51.765Z,11.77
2018-06-05T05:49:20.575Z,11.30
2018-06-05T05:51:49.335Z,11.70
2018-06-05T05:54:18.107Z,11.53
2018-06-05T05:56:46.910Z,11.47
2018-06-05T05:59:15.627Z,12.50
2018-06-05T06:01:44.463Z,12.50
2018-06-05T06:04:13.281Z,12.10
2018-06-05T06:06:41.976Z,11.03
2018-06-05T06:09:10.927Z,11.23
2018-06-05T06:11:39.790Z,12.87
2018-06-05T06:14:08.716Z,12.50
2018-06-05T06:16:37.518Z,11.37
2018-06-05T06:19:06.389Z,12.10
2018-06-05T06:21:35.214Z,12.50
2018-06-05T06:24:04.123Z,12.23
2018-06-05T06:26:32.923Z,14.23
2018-06-05T06:29:01.676Z,13.80
2018-06-05T06:31:30.557Z,11.90
2018-06-05T06:33:59.481Z,13.20
2018-06-05T06:36:28.305Z,13.00
2018-06-05T06:38:57.145Z,13.07
2018-06-05T06:41:25.881Z,12.90
2018-06-05T06:43:54.608Z,12.63
2018-06-05T06:46:23.354Z,12.20
2018-06-05T06:48:52.338Z,12.53
2018-06-05T06:51:21.239Z,13.47
2018-06-05T06:53:50.013Z,12.20
2018-06-05T06:56:19.018Z,11.70
2018-06-05T06:58:47.775Z,12.50
2018-06-05T07:01:16.602Z,12.97
2018-06-05T07:03:45.355Z,13.23
2018-06-05T07:06:14.165Z,12.90
2018-06-05T07:08:42.873Z,12.80
2018-06-05T07:11:13.323Z,11.27
2018-06-05T07:13:44.918Z,12.77
2018-06-05T07:16:15.362Z,11.83
2018-06-05T07:18:47.017Z,9.90
2018-06-05T07:21:15.831Z,12.43
2018-06-05T07:23:44.545Z,12.27
2018-06-05T07:26:13.442Z,13.53
2018-06-05T07:28:42.424Z,12.30
2018-06-05T07:31:11.239Z,11.63
2018-06-05T07:33:39.972Z,11.07
2018-06-05T07:36:09.479Z,12.33
2018-06-05T07:38:38.450Z,12.27
2018-06-05T07:41:07.458Z,11.43
2018-06-05T07:43:37.163Z,11.60
2018-06-05T07:46:06.956Z,11.33
2018-06-05T07:48:35.717Z,11.23
2018-06-05T07:51:06.855Z,12.40
2018-06-05T07:53:37.557Z,11.70
2018-06-05T07:56:06.489Z,11.20
2018-06-05T07:58:35.500Z,12.10
2018-06-05T08:01:04.346Z,12.43
2018-06-05T08:03:33.338Z,13.03
2018-06-05T08:06:02.776Z,11.33
2018-06-05T08:08:31.836Z,11.57
2018-06-05T08:11:01.244Z,10.60
2018-06-05T08:13:30.151Z,11.57
2018-06-05T08:15:59.202Z,12.37
2018-06-05T08:18:28.256Z,11.20
2018-06-05T08:20:57.277Z,12.17
2018-06-05T08:23:26.391Z,11.67
2018-06-05T08:25:55.195Z,11.20
2018-06-05T08:28:24.002Z,12.00
2018-06-05T08:30:52.944Z,11.00
2018-06-05T08:33:21.942Z,9.87
2018-06-05T08:35:50.777Z,12.30
2018-06-05T08:38:19.155Z,10.57
2018-06-05T08:40:48.036Z,9.63
2018-06-05T08:43:16.945Z,11.27
2018-06-05T08:45:45.693Z,12.40
2018-06-05T08:48:14.565Z,11.33
2018-06-05T08:50:43.558Z,10.50
2018-06-05T08:53:12.555Z,10.10
2018-06-05T08:55:41.312Z,11.07
2018-06-05T08:58:09.842Z,11.73
2018-06-05T09:00:39.652Z,12.57
2018-06-05T09:03:08.754Z,11.90
2018-06-05T09:05:37.659Z,11.57
2018-06-05T09:08:06.727Z,11.00
2018-06-05T09:10:35.975Z,11.40
2018-06-05T09:13:04.693Z,10.70
2018-06-05T09:15:33.578Z,11.80
2018-06-05T09:18:02.601Z,12.00
2018-06-05T09:20:31.532Z,10.40
2018-06-05T09:23:00.211Z,10.23
2018-06-05T09:25:28.963Z,9.90
2018-06-05T09:27:57.751Z,11.53
2018-06-05T09:30:26.482Z,10.40
2018-06-05T09:32:55.270Z,16.63
2018-06-05T09:35:24.058Z,10.90
2018-06-05T09:37:52.884Z,10.73
2018-06-05T09:40:21.743Z,11.87
2018-06-05T09:42:50.155Z,11.10
2018-06-05T09:45:19.050Z,11.10
2018-06-05T09:47:47.786Z,10.57
2018-06-05T09:50:16.553Z,9.37
2018-06-05T09:52:45.304Z,9.80
2018-06-05T09:55:14.722Z,10.40
2018-06-05T09:57:43.559Z,11.47
2018-06-05T10:00:12.341Z,10.80
2018-06-05T10:02:41.555Z,10.50
2018-06-05T10:05:10.389Z,8.60
2018-06-05T10:07:39.304Z,9.90
2018-06-05T10:10:08.283Z,8.80
2018-06-05T10:12:37.009Z,8.20
2018-06-05T10:15:06.141Z,10.50
2018-06-05T10:17:36.016Z,9.30
2018-06-05T10:20:04.915Z,9.20
2018-06-05T10:22:33.704Z,10.40
2018-06-05T10:25:02.640Z,9.20
2018-06-05T10:27:31.422Z,9.10
2018-06-05T10:29:59.793Z,9.33
2018-06-05T10:32:28.489Z,9.10
2018-06-05T10:34:57.529Z,10.23
2018-06-05T10:37:26.262Z,9.20
2018-06-05T10:39:55.902Z,10.20
2018-06-05T10:42:26.361Z,8.87
2018-06-05T10:44:55.109Z,7.43
2018-06-05T10:47:23.949Z,8.90
2018-06-05T10:49:52.867Z,9.13
2018-06-05T10:52:23.253Z,9.07
2018-06-05T10:54:52.081Z,9.20
2018-06-05T10:57:20.956Z,8.33
2018-06-05T10:59:49.780Z,10.20
2018-06-05T11:02:18.874Z,8.93
2018-06-05T11:04:47.731Z,8.47
2018-06-05T11:07:16.559Z,8.70
2018-06-05T11:09:45.478Z,8.97
2018-06-05T11:12:16.693Z,8.20
2018-06-05T11:14:45.519Z,8.40
2018-06-05T11:17:14.397Z,7.83
2018-06-05T11:19:43.407Z,7.80
2018-06-05T11:22:12.374Z,8.40
2018-06-05T11:24:41.250Z,8.57
2018-06-05T11:27:10.014Z,8.73
2018-06-05T11:29:38.700Z,8.87
2018-06-05T11:32:07.530Z,8.23
2018-06-05T11:34:36.431Z,7.53
2018-06-05T11:37:05.417Z,7.37
2018-06-05T11:39:34.238Z,8.43
2018-06-05T11:42:02.975Z,8.70
2018-06-05T11:44:31.920Z,8.57
2018-06-05T11:47:00.760Z,7.70
2018-06-05T11:49:29.484Z,8.60
2018-06-05T11:51:58.262Z,8.43
2018-06-05T11:54:27.033Z,7.97
2018-06-05T11:56:57.825Z,6.90
2018-06-05T11:59:26.684Z,7.30
2018-06-05T12:01:55.433Z,7.60
2018-06-05T12:04:24.173Z,8.50
2018-06-05T12:06:53.060Z,7.77
2018-06-05T12:09:21.871Z,8.17
2018-06-05T12:11:50.680Z,8.33
2018-06-05T12:14:19.446Z,8.37
2018-06-05T12:16:48.216Z,7.80
2018-06-05T12:19:17.089Z,6.63
2018-06-05T12:21:46.907Z,8.70
2018-06-05T12:24:15.743Z,6.80
2018-06-05T12:26:44.474Z,9.33
2018-06-05T12:29:14.227Z,7.83
2018-06-05T12:31:43.127Z,7.23
2018-06-05T12:34:12.057Z,6.50
2018-06-05T12:36:41.030Z,7.47
2018-06-05T12:39:09.877Z,7.33
2018-06-05T12:41:38.826Z,7.33
2018-06-05T12:44:07.642Z,7.57
2018-06-05T12:46:36.700Z,7.40
2018-06-05T12:49:05.555Z,7.13
2018-06-05T12:51:34.362Z,6.67
2018-06-05T12:54:03.127Z,7.53
2018-06-05T12:56:31.911Z,6.90
2018-06-05T12:59:00.795Z,7.13
2018-06-05T13:01:29.723Z,7.50
2018-06-05T13:03:58.525Z,6.20
2018-06-05T13:06:27.714Z,7.23
2018-06-05T13:08:57.348Z,7.00
2018-06-05T13:11:26.217Z,6.90
2018-06-05T13:13:55.230Z,6.70
2018-06-05T13:16:24.204Z,6.10
2018-06-05T13:18:53.288Z,7.60
2018-06-05T13:21:22.307Z,6.97
2018-06-05T13:23:51.173Z,7.13
2018-06-05T13:26:20.003Z,7.53
2018-06-05T13:28:48.814Z,8.00
2018-06-05T13:31:17.660Z,7.60
2018-06-05T13:33:46.417Z,6.90
2018-06-05T13:36:15.709Z,6.93
2018-06-05T13:38:44.471Z,6.77
2018-06-05T13:41:18.516Z,8.13
2018-06-05T13:43:47.281Z,7.20
2018-06-05T13:46:16.116Z,7.10
2018-06-05T13:48:44.889Z,7.77
2018-06-05T13:51:13.817Z,6.90
2018-06-05T13:53:42.705Z,7.00
2018-06-05T13:56:11.683Z,7.67
2018-06-05T13:58:40.417Z,7.60
2018-06-05T14:04:03.420Z,7.10
2018-06-05T14:06:32.294Z,7.20
2018-06-05T14:09:01.265Z,6.93
2018-06-05T14:11:30.065Z,7.10
2018-06-05T14:13:58.837Z,6.93
2018-06-05T14:16:27.272Z,6.20
2018-06-05T14:18:58.549Z,6.90
2018-06-05T14:21:29.062Z,7.60
2018-06-05T14:23:58.706Z,7.40
2018-06-05T14:26:29.456Z,7.00
2018-06-05T14:28:58.429Z,7.53
2018-06-05T14:31:27.719Z,6.83
2018-06-05T14:33:57.208Z,8.37
2018-06-05T14:36:28.030Z,7.20
2018-06-05T14:38:57.705Z,8.17
2018-06-05T14:41:27.594Z,8.10
2018-06-05T14:43:56.011Z,7.63
2018-06-05T14:46:25.653Z,7.83
2018-06-05T14:48:54.498Z,8.07
2018-06-05T14:51:23.304Z,6.83
2018-06-05T14:53:52.067Z,7.97
2018-06-05T14:56:20.873Z,7.73
2018-06-05T14:58:49.740Z,7.67
2018-06-05T15:01:18.685Z,7.27
2018-06-05T15:03:47.584Z,6.83
2018-06-05T15:06:16.297Z,8.20
2018-06-05T15:08:45.246Z,8.00
2018-06-05T15:11:13.971Z,8.23
2018-06-05T15:13:42.782Z,8.30
2018-06-05T15:16:11.552Z,6.93
2018-06-05T15:18:40.412Z,16.73
2018-06-05T15:21:09.181Z,8.07
2018-06-05T15:23:37.963Z,8.07
2018-06-05T15:26:06.760Z,7.87
2018-06-05T15:28:35.610Z,8.73
2018-06-05T15:31:04.453Z,8.90
2018-06-05T15:33:33.175Z,7.90
2018-06-05T15:36:01.857Z,8.20
2018-06-05T15:38:30.756Z,7.93
2018-06-05T15:40:59.492Z,8.20
2018-06-05T15:43:28.224Z,8.20
2018-06-05T15:45:56.968Z,8.60
2018-06-05T15:48:25.732Z,9.13
2018-06-05T15:50:54.509Z,9.53
2018-06-05T15:53:23.291Z,8.20
2018-06-05T15:55:52.111Z,9.20
2018-06-05T15:58:21.474Z,8.20
2018-06-05T16:00:50.317Z,8.70
2018-06-05T16:03:20.023Z,7.83
2018-06-05T16:05:49.768Z,8.80
2018-06-05T16:08:19.975Z,9.00
2018-06-05T16:10:48.787Z,8.73
2018-06-05T16:13:18.169Z,10.10
2018-06-05T16:15:47.006Z,9.73
2018-06-05T16:18:15.849Z,8.67
2018-06-05T16:20:44.729Z,9.30
2018-06-05T16:23:13.505Z,9.00
2018-06-05T16:25:42.250Z,8.23
2018-06-05T16:28:11.535Z,8.57
2018-06-05T16:30:40.520Z,8.93
2018-06-05T16:33:09.317Z,10.03
2018-06-05T16:35:38.016Z,8.70
2018-06-05T16:38:06.856Z,8.53
2018-06-05T16:40:35.639Z,9.43
2018-06-05T16:43:04.572Z,8.70
2018-06-05T16:45:33.263Z,9.97
2018-06-05T16:48:04.064Z,9.57
2018-06-05T16:50:33.641Z,10.20
2018-06-05T16:53:03.156Z,9.87
2018-06-05T16:55:31.932Z,8.97
2018-06-05T16:58:00.889Z,10.37
2018-06-05T17:00:29.621Z,9.23
2018-06-05T17:02:58.412Z,8.90
2018-06-05T17:05:27.157Z,9.50
2018-06-05T17:07:55.977Z,9.23
2018-06-05T17:10:24.758Z,10.50
2018-06-05T17:12:53.545Z,9.47
2018-06-05T17:15:22.371Z,10.40
2018-06-05T17:17:51.098Z,10.53
2018-06-05T17:20:19.864Z,10.77
2018-06-05T17:22:48.574Z,9.47
2018-06-05T17:25:17.315Z,9.20
2018-06-05T17:27:46.149Z,10.17
2018-06-05T17:30:14.940Z,9.80
2018-06-05T17:32:43.721Z,10.07
2018-06-05T17:35:12.494Z,9.60
2018-06-05T17:37:41.256Z,9.60
2018-06-05T17:40:10.000Z,10.00
2018-06-05T17:42:38.758Z,9.70
2018-06-05T17:45:08.288Z,10.03
2018-06-05T17:47:37.113Z,9.17
2018-06-05T17:50:05.936Z,9.60
2018-06-05T17:52:34.739Z,9.27
2018-06-05T17:55:03.579Z,9.87
2018-06-05T17:57:32.413Z,9.23
2018-06-05T18:00:01.253Z,9.60
2018-06-05T18:02:30.249Z,9.20
2018-06-05T18:04:59.094Z,10.20
2018-06-05T18:07:27.846Z,9.47
2018-06-05T18:09:56.691Z,9.40
2018-06-05T18:12:25.511Z,8.90
2018-06-05T18:14:54.240Z,8.13
2018-06-05T18:17:22.614Z,9.80
2018-06-05T18:19:51.016Z,9.97
2018-06-05T18:22:19.832Z,9.40
2018-06-05T18:24:48.576Z,7.93
2018-06-05T18:27:16.935Z,9.50
2018-06-05T18:29:45.691Z,8.97
2018-06-05T18:32:14.549Z,9.00
2018-06-05T18:34:43.355Z,8.80
2018-06-05T18:37:12.100Z,9.10
2018-06-05T18:39:40.886Z,9.50
2018-06-05T18:42:09.629Z,9.03
2018-06-05T18:44:38.357Z,8.70
2018-06-05T18:47:11.809Z,9.20
2018-06-05T18:49:40.562Z,9.30
2018-06-05T18:52:09.399Z,9.43
2018-06-05T18:54:38.198Z,9.70
2018-06-05T18:57:06.968Z,9.07
2018-06-05T18:59:35.673Z,9.03
2018-06-05T19:02:06.074Z,8.90
2018-06-05T19:04:34.851Z,8.30
2018-06-05T19:07:03.665Z,9.77
2018-06-05T19:09:32.433Z,9.17
2018-06-05T19:12:01.210Z,9.27
2018-06-05T19:14:29.929Z,8.17
2018-06-05T19:16:58.686Z,8.33
2018-06-05T19:19:27.417Z,9.43
2018-06-05T19:21:56.263Z,9.97
2018-06-05T19:24:25.044Z,9.20
2018-06-05T19:26:53.431Z,8.67
2018-06-05T19:29:22.253Z,8.27
2018-06-05T19:31:51.018Z,8.80
2018-06-05T19:34:19.815Z,9.10
2018-06-05T19:36:48.601Z,8.00
2018-06-05T19:39:17.388Z,8.47
2018-06-05T19:41:46.202Z,9.13
2018-06-05T19:44:15.033Z,10.03
2018-06-05T19:46:43.703Z,9.60
2018-06-05T19:49:12.448Z,9.53
2018-06-05T19:51:41.260Z,9.13
2018-06-05T19:54:10.052Z,10.60
2018-06-05T19:56:38.833Z,8.80
2018-06-05T19:59:07.569Z,10.67
2018-06-05T20:01:36.295Z,9.47
2018-06-05T20:04:08.040Z,9.93
2018-06-05T20:06:36.758Z,9.90
2018-06-05T20:09:07.704Z,10.93
2018-06-05T20:11:36.621Z,9.63
2018-06-05T20:14:05.395Z,11.00
2018-06-05T20:16:34.206Z,10.27
2018-06-05T20:19:02.660Z,9.53
2018-06-05T20:21:31.585Z,10.53
2018-06-05T20:24:00.508Z,10.60
2018-06-05T20:26:29.254Z,10.87
2018-06-05T20:28:58.113Z,10.53
2018-06-05T20:31:27.039Z,12.17
2018-06-05T20:33:55.821Z,11.80
2018-06-05T20:36:24.587Z,11.60
2018-06-05T20:38:53.465Z,11.00
2018-06-05T20:41:22.257Z,11.50
2018-06-05T20:43:51.030Z,11.43
2018-06-05T20:46:19.816Z,11.93
2018-06-05T20:48:48.535Z,11.67
2018-06-05T20:51:17.279Z,15.27
2018-06-05T20:53:46.024Z,12.13
2018-06-05T20:56:14.795Z,11.93
2018-06-05T20:58:43.492Z,12.50
2018-06-05T21:01:12.224Z,12.10
2018-06-05T21:03:40.978Z,12.60
2018-06-05T21:06:09.791Z,12.43
2018-06-05T21:08:38.531Z,11.50
2018-06-05T21:11:07.251Z,12.57
2018-06-05T21:13:36.005Z,12.67
2018-06-05T21:16:04.851Z,13.20
2018-06-05T21:18:33.649Z,12.20
2018-06-05T21:21:02.346Z,12.57
2018-06-05T21:23:31.103Z,11.87
2018-06-05T21:25:59.809Z,11.87
2018-06-05T21:28:28.545Z,11.90
2018-06-05T21:30:57.261Z,12.97
2018-06-05T21:33:26.002Z,13.77
2018-06-05T21:35:54.733Z,12.37
2018-06-05T21:38:23.446Z,13.00
2018-06-05T21:40:51.804Z,13.30
2018-06-05T21:43:20.557Z,13.43
2018-06-05T21:45:49.307Z,13.80
2018-06-05T21:48:18.110Z,12.80
2018-06-05T21:50:46.911Z,14.43
2018-06-05T21:53:15.641Z,14.50
2018-06-05T21:55:44.336Z,13.60
2018-06-05T21:58:13.204Z,16.20
2018-06-05T22:00:41.913Z,14.30
2018-06-05T22:03:10.658Z,12.97
2018-06-05T22:05:39.471Z,12.87
2018-06-05T22:08:08.290Z,13.37
2018-06-05T22:10:37.127Z,13.40
2018-06-05T22:13:05.961Z,13.63
2018-06-05T22:15:34.692Z,14.83
2018-06-05T22:18:03.418Z,13.20
2018-06-05T22:20:32.210Z,14.63
2018-06-05T22:23:00.969Z,14.37
2018-06-05T22:25:29.788Z,14.10
2018-06-05T22:27:58.531Z,13.03
2018-06-05T22:30:27.276Z,14.17
2018-06-05T22:32:56.069Z,14.40
2018-06-05T22:35:24.780Z,14.00
2018-06-05T22:37:53.581Z,13.30
2018-06-05T22:40:22.307Z,13.73
2018-06-05T22:42:51.073Z,14.20
2018-06-05T22:45:19.834Z,13.03
2018-06-05T22:47:48.630Z,13.43
2018-06-05T22:50:17.369Z,13.83
2018-06-05T22:52:46.234Z,15.30
2018-06-05T22:55:14.966Z,15.37
2018-06-05T22:57:43.819Z,13.47
2018-06-05T23:00:14.756Z,14.50
2018-06-05T23:02:43.538Z,14.30
2018-06-05T23:05:12.348Z,14.60
2018-06-05T23:07:41.138Z,15.60
2018-06-05T23:10:09.885Z,12.90
2018-06-05T23:12:38.646Z,15.43
2018-06-05T23:15:07.385Z,14.37
2018-06-05T23:17:36.147Z,15.00
2018-06-05T23:20:04.939Z,14.60
2018-06-05T23:22:33.742Z,15.00
2018-06-05T23:25:02.486Z,14.93
2018-06-05T23:27:31.321Z,13.20
2018-06-05T23:30:00.046Z,14.30
2018-06-05T23:32:28.789Z,14.87
2018-06-05T23:34:57.522Z,14.73
2018-06-05T23:37:26.313Z,14.17
2018-06-05T23:39:55.104Z,13.57
2018-06-05T23:42:23.956Z,14.93
2018-06-05T23:44:52.768Z,14.53
2018-06-05T23:47:21.543Z,15.37
2018-06-05T23:49:50.326Z,14.10
2018-06-05T23:52:19.022Z,13.27
2018-06-05T23:54:47.737Z,13.80
2018-06-05T23:57:16.477Z,14.90
2018-06-05T23:59:45.226Z,14.37
